Time;durP1;ratioP1;P1;durP2;ratioP2;P2;SDS_P1;SDS_P2;PMS_P1;PMS_P2;Temp;Humidity;BMP_temperature;BMP_pressure;BME280_temperature;BME280_humidity;BME280_pressure;Samples;Min_cycle;Max_cycle;Signal;HPM_P1;HPM_P2
2023/08/06 00:00:59;;;;;;;10.60;7.60;;;;;;;23.37;100.00;99921.30;110105;1238;70319;-70
2023/08/06 00:03:48;;;;;;;10.00;7.80;;;;;;;23.46;99.56;99915.67;110119;1237;75154;-70
2023/08/06 00:06:16;;;;;;;12.30;8.00;;;;;;;23.55;98.56;99914.84;110106;1238;61350;-69
2023/08/06 00:08:45;;;;;;;9.30;8.00;;;;;;;23.63;98.34;99911.94;110092;1241;58277;-69
2023/08/06 00:11:14;;;;;;;11.10;8.40;;;;;;;23.70;98.20;99913.50;110127;1238;62819;-69
2023/08/06 00:13:42;;;;;;;12.30;8.70;;;;;;;23.73;98.25;99911.92;110108;1238;72825;-69
2023/08/06 00:16:13;;;;;;;9.50;7.10;;;;;;;23.77;97.75;99909.43;110124;1237;60108;-69
2023/08/06 00:18:42;;;;;;;8.50;7.60;;;;;;;23.76;98.04;99914.02;109885;1242;62463;-70
2023/08/06 00:21:12;;;;;;;11.70;7.80;;;;;;;23.75;97.74;99916.41;110025;1238;60656;-70
2023/08/06 00:23:41;;;;;;;10.60;7.50;;;;;;;23.73;96.49;99919.11;110143;1238;60484;-70
2023/08/06 00:26:10;;;;;;;9.70;7.50;;;;;;;23.70;96.56;99918.21;109973;1237;74569;-70
2023/08/06 00:28:39;;;;;;;9.00;7.90;;;;;;;23.57;98.80;99916.19;109999;1238;62082;-70
2023/08/06 00:31:08;;;;;;;12.90;8.70;;;;;;;23.49;98.15;99915.26;110010;1238;70243;-70
2023/08/06 00:33:38;;;;;;;12.10;8.00;;;;;;;23.42;99.19;99914.96;109985;1240;74117;-70
2023/08/06 00:36:06;;;;;;;9.90;7.90;;;;;;;23.31;99.95;99912.16;109867;1241;61496;-70
2023/08/06 00:38:35;;;;;;;9.30;7.50;;;;;;;23.22;100.00;99906.94;110055;1238;61442;-70
2023/08/06 00:41:04;;;;;;;10.50;8.30;;;;;;;23.15;100.00;99907.80;110045;1239;64062;-69
2023/08/06 00:43:33;;;;;;;10.60;8.90;;;;;;;23.06;100.00;99907.14;110021;1238;71179;-71
2023/08/06 00:46:01;;;;;;;11.00;9.40;;;;;;;23.02;100.00;99904.70;110065;1237;70207;-70
2023/08/06 00:48:31;;;;;;;12.50;8.60;;;;;;;22.94;100.00;99905.51;110052;1238;63450;-72
2023/08/06 00:51:01;;;;;;;10.10;8.60;;;;;;;22.85;100.00;99900.36;109888;1242;58333;-71
2023/08/06 00:53:30;;;;;;;11.60;9.10;;;;;;;22.82;100.00;99900.86;109929;1242;58467;-69
2023/08/06 00:55:59;;;;;;;12.90;9.10;;;;;;;22.81;100.00;99902.99;110064;1241;62796;-69
2023/08/06 00:58:28;;;;;;;11.80;8.00;;;;;;;22.72;100.00;99899.04;110070;1238;61451;-69
2023/08/06 01:00:57;;;;;;;9.40;8.50;;;;;;;22.59;100.00;99891.02;110143;1238;58981;-70
2023/08/06 01:03:26;;;;;;;11.40;8.90;;;;;;;22.45;100.00;99892.29;109883;1241;62284;-69
2023/08/06 01:05:55;;;;;;;13.00;10.00;;;;;;;22.42;100.00;99889.34;110020;1241;62967;-70
2023/08/06 01:08:58;;;;;;;11.70;8.40;;;;;;;22.39;100.00;99894.25;110141;1238;61258;-70
2023/08/06 01:11:42;;;;;;;;;;;;;;;22.27;100.00;99890.45;110170;1239;64425;-70
2023/08/06 01:14:27;;;;;;;9.40;8.40;;;;;;;22.13;100.00;99894.00;110142;1238;71414;-70
2023/08/06 01:16:58;;;;;;;10.60;9.30;;;;;;;22.12;100.00;99890.96;110034;1237;70173;-69
2023/08/06 01:19:27;;;;;;;16.50;10.60;;;;;;;22.22;100.00;99888.96;109900;1241;72492;-69
2023/08/06 01:21:55;;;;;;;12.20;9.80;;;;;;;22.36;100.00;99883.45;110057;1238;61841;-70
2023/08/06 01:24:24;;;;;;;12.20;9.00;;;;;;;22.39;100.00;99883.15;110048;1239;58291;-70
2023/08/06 01:27:21;;;;;;;12.40;9.40;;;;;;;22.49;100.00;99883.83;110067;1240;63620;-70
2023/08/06 01:30:24;;;;;;;12.10;9.20;;;;;;;22.57;100.00;99875.63;110041;1238;71536;-70
2023/08/06 01:32:59;;;;;;;12.40;10.10;;;;;;;22.56;100.00;99868.83;110023;1238;70241;-69
2023/08/06 01:35:29;;;;;;;11.10;9.60;;;;;;;22.59;100.00;99863.30;110026;1237;63513;-70
2023/08/06 01:38:03;;;;;;;11.70;8.90;;;;;;;22.56;100.00;99861.14;109898;1237;61099;-70
2023/08/06 01:40:32;;;;;;;10.80;9.10;;;;;;;22.56;100.00;99861.30;110007;1238;59776;-69
2023/08/06 01:43:01;;;;;;;12.50;8.80;;;;;;;22.56;100.00;99859.13;110088;1239;74589;-69
2023/08/06 01:45:30;;;;;;;11.20;8.50;;;;;;;22.59;100.00;99855.35;110018;1237;72176;-69
2023/08/06 01:47:59;;;;;;;11.30;10.00;;;;;;;22.61;100.00;99853.21;110100;1239;60551;-69
2023/08/06 01:50:28;;;;;;;14.60;9.30;;;;;;;22.63;100.00;99848.37;110074;1239;73509;-69
2023/08/06 01:52:56;;;;;;;13.90;9.80;;;;;;;22.64;100.00;99842.08;110056;1238;62211;-69
2023/08/06 01:55:25;;;;;;;12.30;8.90;;;;;;;22.67;100.00;99836.11;110002;1241;58273;-69
2023/08/06 01:57:54;;;;;;;11.00;8.50;;;;;;;22.68;100.00;99834.64;109990;1237;73605;-70
2023/08/06 02:00:22;;;;;;;13.10;8.80;;;;;;;22.68;100.00;99835.63;109969;1237;73610;-70
2023/08/06 02:02:51;;;;;;;11.70;8.20;;;;;;;22.68;100.00;99837.38;110085;1238;70363;-69
2023/08/06 02:05:20;;;;;;;12.00;8.60;;;;;;;22.64;100.00;99837.42;109955;1239;63819;-69
2023/08/06 02:07:49;;;;;;;10.20;8.50;;;;;;;22.55;100.00;99834.23;109865;1241;58178;-70
2023/08/06 02:10:18;;;;;;;12.00;9.00;;;;;;;22.46;100.00;99830.99;109916;1237;61472;-70
2023/08/06 02:12:46;;;;;;;12.80;9.50;;;;;;;22.40;100.00;99832.02;109930;1239;74630;-70
2023/08/06 02:15:15;;;;;;;14.90;8.80;;;;;;;22.45;100.00;99829.64;109938;1239;61382;-70
2023/08/06 02:17:44;;;;;;;11.40;9.80;;;;;;;22.38;100.00;99831.39;109705;1238;69912;-70
2023/08/06 02:20:13;;;;;;;12.00;9.10;;;;;;;22.28;100.00;99827.64;109895;1242;63558;-70
2023/08/06 02:22:42;;;;;;;12.80;8.90;;;;;;;22.17;100.00;99829.79;109817;1240;58364;-70
2023/08/06 02:25:11;;;;;;;12.50;9.20;;;;;;;22.05;100.00;99827.20;109704;1237;58372;-70
2023/08/06 02:27:40;;;;;;;17.00;9.50;;;;;;;21.92;100.00;99830.69;109945;1237;74045;-69
2023/08/06 02:30:08;;;;;;;11.40;10.10;;;;;;;21.82;100.00;99831.32;109951;1238;70896;-69
2023/08/06 02:32:38;;;;;;;12.80;11.30;;;;;;;21.80;100.00;99826.77;109934;1238;60616;-70
2023/08/06 02:35:07;;;;;;;13.70;10.30;;;;;;;21.86;100.00;99822.64;109871;1238;74237;-69
2023/08/06 02:37:36;;;;;;;12.90;10.50;;;;;;;21.81;100.00;99824.69;110102;1239;57776;-70
2023/08/06 02:40:05;;;;;;;13.20;10.00;;;;;;;21.72;100.00;99822.23;110013;1238;59881;-69
2023/08/06 02:42:34;;;;;;;11.90;9.30;;;;;;;21.63;100.00;99818.23;110049;1238;74707;-69
2023/08/06 02:45:04;;;;;;;11.10;9.70;;;;;;;21.58;100.00;99810.50;109916;1241;62320;-69
2023/08/06 02:47:33;;;;;;;13.60;11.60;;;;;;;21.59;100.00;99802.82;110060;1238;60369;-69
2023/08/06 02:50:02;;;;;;;11.30;10.10;;;;;;;21.66;100.00;99798.53;109896;1241;62666;-69
2023/08/06 02:52:31;;;;;;;15.20;10.20;;;;;;;21.67;100.00;99794.60;110006;1239;62829;-70
2023/08/06 02:55:00;;;;;;;11.40;9.30;;;;;;;21.69;100.00;99796.68;109868;1237;61498;-70
2023/08/06 02:57:29;;;;;;;14.70;10.80;;;;;;;21.71;100.00;99791.28;110016;1238;64060;-69
2023/08/06 02:59:58;;;;;;;15.50;10.40;;;;;;;21.75;100.00;99789.14;109995;1237;60646;-69
2023/08/06 03:02:27;;;;;;;14.70;10.50;;;;;;;21.74;100.00;99792.73;110013;1238;59212;-69
2023/08/06 03:05:15;;;;;;;13.70;10.70;;;;;;;21.73;100.00;99792.55;110002;1237;71943;-69
2023/08/06 03:07:44;;;;;;;18.60;11.40;;;;;;;21.76;100.00;99782.40;109891;1242;63238;-69
2023/08/06 03:10:18;;;;;;;14.90;10.80;;;;;;;21.85;100.00;99781.45;109999;1238;61472;-69
2023/08/06 03:12:47;;;;;;;15.80;11.60;;;;;;;21.91;100.00;99776.70;110104;1238;64118;-69
2023/08/06 03:15:16;;;;;;;17.00;10.30;;;;;;;22.00;100.00;99776.11;110153;1237;70425;-70
2023/08/06 03:17:46;;;;;;;19.20;10.10;;;;;;;22.06;100.00;99781.46;110035;1238;69538;-69
2023/08/06 03:20:15;;;;;;;14.40;10.10;;;;;;;22.08;100.00;99778.75;110083;1237;63476;-70
2023/08/06 03:22:44;;;;;;;13.00;9.90;;;;;;;22.05;100.00;99778.48;109986;1238;58581;-70
2023/08/06 03:25:13;;;;;;;15.50;10.80;;;;;;;22.06;100.00;99781.83;110102;1238;58326;-70
2023/08/06 03:27:44;;;;;;;14.90;10.30;;;;;;;22.12;100.00;99775.21;110109;1237;73410;-70
2023/08/06 03:30:14;;;;;;;13.00;10.40;;;;;;;22.08;100.00;99776.80;109975;1237;72498;-70
2023/08/06 03:32:42;;;;;;;14.50;9.90;;;;;;;22.07;100.00;99776.35;110194;1238;70614;-70
2023/08/06 03:35:12;;;;;;;11.70;9.60;;;;;;;22.11;100.00;99775.91;109962;1239;74104;-69
2023/08/06 03:37:41;;;;;;;15.00;11.50;;;;;;;22.15;100.00;99777.78;109968;1237;58331;-70
2023/08/06 03:40:10;;;;;;;15.30;9.50;;;;;;;22.19;100.00;99775.85;109985;1237;58625;-69
2023/08/06 03:42:39;;;;;;;17.80;10.20;;;;;;;22.18;100.00;99773.23;110051;1237;63530;-69
2023/08/06 03:45:08;;;;;;;11.40;9.40;;;;;;;22.25;100.00;99771.13;110128;1238;61095;-70
2023/08/06 03:47:38;;;;;;;13.90;12.00;;;;;;;22.30;100.00;99774.71;110032;1237;70819;-69
2023/08/06 03:50:08;;;;;;;13.70;9.70;;;;;;;22.36;100.00;99776.00;110013;1238;72459;-70
2023/08/06 03:52:36;;;;;;;12.40;10.80;;;;;;;22.37;100.00;99772.92;110036;1238;62337;-69
2023/08/06 03:55:06;;;;;;;14.10;10.00;;;;;;;22.47;100.00;99770.23;110014;1237;57703;-69
2023/08/06 03:57:35;;;;;;;15.70;10.10;;;;;;;22.55;100.00;99768.60;110092;1237;62844;-70
2023/08/06 04:00:05;;;;;;;14.00;10.30;;;;;;;22.55;100.00;99770.80;110008;1237;61533;-70
2023/08/06 04:02:42;;;;;;;16.70;9.80;;;;;;;22.63;100.00;99766.77;110051;1237;61543;-71
2023/08/06 04:05:12;;;;;;;15.10;9.40;;;;;;;22.68;100.00;99758.95;109885;1237;62939;-70
2023/08/06 04:07:41;;;;;;;14.00;9.60;;;;;;;22.65;100.00;99756.98;109857;1241;62762;-70
2023/08/06 04:10:10;;;;;;;14.30;9.50;;;;;;;22.67;100.00;99753.80;109876;1238;60574;-70
2023/08/06 04:12:39;;;;;;;17.60;9.90;;;;;;;22.67;100.00;99754.87;110034;1237;64762;-70
2023/08/06 04:15:08;;;;;;;12.50;9.10;;;;;;;22.69;100.00;99753.71;110037;1239;72501;-70
2023/08/06 04:17:37;;;;;;;13.60;9.50;;;;;;;22.67;100.00;99751.26;110166;1238;69941;-69
2023/08/06 04:20:07;;;;;;;12.00;10.30;;;;;;;22.71;100.00;99756.77;109899;1240;74809;-69
2023/08/06 04:22:35;;;;;;;14.40;9.70;;;;;;;22.79;100.00;99755.70;109992;1239;58319;-70
2023/08/06 04:25:05;;;;;;;16.40;9.50;;;;;;;22.82;100.00;99756.17;109953;1238;60122;-70
2023/08/06 04:27:36;;;;;;;13.70;9.20;;;;;;;22.86;100.00;99756.05;110064;1237;64094;-70
2023/08/06 04:30:06;;;;;;;10.70;9.40;;;;;;;22.91;100.00;99749.98;110062;1237;71154;-70
2023/08/06 04:32:39;;;;;;;10.80;8.80;;;;;;;22.94;100.00;99739.02;110051;1237;60296;-70
2023/08/06 04:35:08;;;;;;;13.80;9.00;;;;;;;23.03;100.00;99737.02;110047;1238;63008;-70
2023/08/06 04:37:37;;;;;;;11.20;9.70;;;;;;;23.10;100.00;99738.54;110001;1238;63532;-70
2023/08/06 04:40:07;;;;;;;13.30;9.70;;;;;;;23.14;100.00;99743.36;109893;1237;61663;-70
2023/08/06 04:42:36;;;;;;;14.90;10.20;;;;;;;23.16;100.00;99740.70;110003;1237;64338;-70
2023/08/06 04:45:06;;;;;;;16.00;9.40;;;;;;;23.27;100.00;99742.77;110097;1237;71283;-69
2023/08/06 04:47:34;;;;;;;9.70;8.70;;;;;;;23.33;100.00;99742.75;109905;1237;71149;-70
2023/08/06 04:50:04;;;;;;;14.70;9.30;;;;;;;23.43;100.00;99738.77;110089;1237;73323;-71
2023/08/06 04:52:33;;;;;;;12.10;9.10;;;;;;;23.50;100.00;99740.07;110087;1238;63856;-70
2023/08/06 04:55:01;;;;;;;14.40;9.20;;;;;;;23.59;100.00;99736.87;109984;1237;61374;-70
2023/08/06 04:57:30;;;;;;;14.60;9.10;;;;;;;23.67;100.00;99732.96;110021;1237;74273;-70
2023/08/06 04:59:59;;;;;;;11.20;8.20;;;;;;;23.80;100.00;99734.29;109955;1238;60704;-70
2023/08/06 05:02:28;;;;;;;16.50;9.20;;;;;;;23.91;100.00;99739.42;109850;1237;69495;-69
2023/08/06 05:04:57;;;;;;;12.30;8.90;;;;;;;23.97;100.00;99741.23;109832;1238;74142;-70
2023/08/06 05:07:25;;;;;;;12.10;8.80;;;;;;;24.07;100.00;99739.26;109933;1238;62959;-70
2023/08/06 05:09:54;;;;;;;12.30;8.80;;;;;;;24.16;100.00;99736.47;109951;1237;58192;-69
2023/08/06 05:12:23;;;;;;;11.00;8.50;;;;;;;24.29;100.00;99733.85;109947;1239;62721;-69
2023/08/06 05:14:52;;;;;;;10.70;8.00;;;;;;;24.41;100.00;99736.77;109976;1237;72022;-69
2023/08/06 05:17:22;;;;;;;10.20;7.40;;;;;;;24.50;100.00;99732.06;110035;1237;60756;-70
2023/08/06 05:19:51;;;;;;;13.40;8.20;;;;;;;24.59;100.00;99731.83;109964;1238;62260;-69
2023/08/06 05:22:20;;;;;;;11.80;8.20;;;;;;;24.70;100.00;99734.64;110043;1239;58320;-70
2023/08/06 05:24:48;;;;;;;10.60;7.90;;;;;;;24.80;100.00;99727.15;110095;1237;61392;-71
2023/08/06 05:27:18;;;;;;;10.70;8.80;;;;;;;24.94;100.00;99718.35;110004;1237;65009;-72
2023/08/06 05:29:48;;;;;;;12.50;8.90;;;;;;;25.10;100.00;99715.46;109996;1237;61391;-72
2023/08/06 05:32:16;;;;;;;13.50;7.80;;;;;;;25.15;100.00;99722.01;110077;1237;60704;-72
2023/08/06 05:34:45;;;;;;;10.40;7.30;;;;;;;25.19;100.00;99719.98;110077;1237;62475;-73
2023/08/06 05:37:14;;;;;;;10.60;8.30;;;;;;;25.30;100.00;99722.98;110113;1238;57823;-71
2023/08/06 05:39:42;;;;;;;13.70;7.80;;;;;;;25.31;100.00;99721.65;110051;1238;61009;-71
2023/08/06 05:42:11;;;;;;;11.40;8.40;;;;;;;25.35;100.00;99717.31;109940;1237;63197;-71
2023/08/06 05:44:40;;;;;;;11.90;8.90;;;;;;;25.40;100.00;99711.98;110038;1239;61489;-73
2023/08/06 05:47:09;;;;;;;9.10;7.40;;;;;;;25.51;100.00;99706.45;110134;1239;59802;-71
2023/08/06 05:49:38;;;;;;;14.30;7.90;;;;;;;25.63;100.00;99705.52;110015;1237;73506;-71
2023/08/06 05:52:08;;;;;;;12.30;7.60;;;;;;;25.70;100.00;99704.70;109973;1239;61457;-70
2023/08/06 05:54:37;;;;;;;11.00;6.90;;;;;;;25.79;100.00;99699.14;110030;1237;60794;-71
2023/08/06 05:57:06;;;;;;;10.30;7.00;;;;;;;25.89;100.00;99698.12;110127;1237;74006;-72
2023/08/06 05:59:35;;;;;;;9.00;7.20;;;;;;;25.94;100.00;99697.52;110095;1237;62973;-70
2023/08/06 06:02:04;;;;;;;10.70;7.60;;;;;;;26.00;100.00;99696.58;110014;1238;70795;-69
2023/08/06 06:04:32;;;;;;;8.80;6.20;;;;;;;26.09;99.25;99693.30;110018;1237;74299;-70
2023/08/06 06:07:01;;;;;;;9.90;6.20;;;;;;;26.21;97.44;99694.02;110077;1239;58401;-70
2023/08/06 06:09:30;;;;;;;8.10;5.80;;;;;;;26.28;96.05;99691.69;110140;1239;58247;-70
2023/08/06 06:11:59;;;;;;;7.90;5.40;;;;;;;26.40;95.22;99692.14;110103;1238;65568;-70
2023/08/06 06:14:27;;;;;;;7.40;6.00;;;;;;;26.57;92.58;99685.29;110110;1237;71840;-70
2023/08/06 06:16:56;;;;;;;7.40;5.60;;;;;;;26.64;90.38;99682.43;110147;1237;58959;-71
2023/08/06 06:19:25;;;;;;;6.70;4.70;;;;;;;26.68;89.57;99679.22;110122;1239;63106;-70
2023/08/06 06:21:57;;;;;;;9.90;5.50;;;;;;;26.63;89.51;99678.99;110131;1239;58375;-71
2023/08/06 06:24:26;;;;;;;7.20;5.00;;;;;;;26.68;89.36;99681.49;110027;1238;58390;-69
2023/08/06 06:26:55;;;;;;;6.80;6.00;;;;;;;26.80;88.89;99678.86;110147;1237;74208;-70
2023/08/06 06:29:23;;;;;;;5.60;4.60;;;;;;;26.89;87.61;99677.40;110109;1237;71628;-70
2023/08/06 06:31:52;;;;;;;8.20;5.90;;;;;;;26.99;87.00;99679.86;110060;1237;59536;-71
2023/08/06 06:34:22;;;;;;;7.40;5.00;;;;;;;27.09;87.02;99678.27;110143;1237;62266;-70
2023/08/06 06:36:50;;;;;;;7.60;4.90;;;;;;;27.21;86.63;99675.91;110092;1239;58453;-70
2023/08/06 06:39:19;;;;;;;10.10;5.00;;;;;;;27.39;86.35;99671.98;110141;1239;57773;-70
2023/08/06 06:41:48;;;;;;;5.00;4.20;;;;;;;27.55;84.54;99670.38;110131;1238;72425;-70
2023/08/06 06:44:23;;;;;;;6.00;4.70;;;;;;;27.51;82.11;99661.32;109945;1242;61812;-70
2023/08/06 06:46:52;;;;;;;6.20;5.20;;;;;;;27.54;81.95;99670.15;110124;1238;69298;-71
2023/08/06 06:49:21;;;;;;;6.00;4.70;;;;;;;27.57;82.88;99672.29;110102;1238;73208;-70
2023/08/06 06:51:51;;;;;;;6.50;4.70;;;;;;;27.73;82.99;99670.55;110139;1239;58372;-69
2023/08/06 06:54:20;;;;;;;7.30;4.60;;;;;;;27.87;82.51;99668.69;110058;1238;58378;-70
2023/08/06 06:56:49;;;;;;;6.40;5.10;;;;;;;28.02;81.97;99666.45;110010;1237;73320;-70
2023/08/06 06:59:17;;;;;;;5.90;4.20;;;;;;;28.15;81.00;99665.27;110087;1237;72842;-70
2023/08/06 07:01:46;;;;;;;9.50;4.60;;;;;;;28.17;79.27;99662.77;110129;1239;60218;-70
2023/08/06 07:04:15;;;;;;;6.00;4.60;;;;;;;28.28;79.33;99657.99;110084;1239;71841;-70
2023/08/06 07:06:43;;;;;;;6.10;4.60;;;;;;;28.35;79.34;99659.65;110009;1240;58374;-70
2023/08/06 07:09:12;;;;;;;7.10;4.20;;;;;;;28.32;78.09;99659.66;110074;1238;59536;-70
2023/08/06 07:11:43;;;;;;;7.60;4.50;;;;;;;28.42;78.00;99661.60;110080;1241;63545;-70
2023/08/06 07:14:12;;;;;;;6.60;4.40;;;;;;;28.39;77.62;99663.35;110114;1238;61536;-70
2023/08/06 07:16:40;;;;;;;6.70;4.60;;;;;;;28.30;78.37;99664.91;109980;1237;70188;-70
2023/08/06 07:19:09;;;;;;;9.70;4.90;;;;;;;28.37;78.34;99655.70;109939;1238;73219;-70
2023/08/06 07:21:38;;;;;;;5.20;4.50;;;;;;;28.58;78.26;99653.59;110008;1239;57766;-70
2023/08/06 07:24:07;;;;;;;6.20;4.20;;;;;;;28.76;77.38;99647.48;110096;1237;60902;-71
2023/08/06 07:26:35;;;;;;;6.70;4.10;;;;;;;28.91;76.53;99640.09;110005;1237;73561;-71
2023/08/06 07:29:04;;;;;;;5.00;4.00;;;;;;;28.73;76.13;99643.46;110080;1239;61900;-69
2023/08/06 07:31:33;;;;;;;6.20;4.20;;;;;;;28.90;76.55;99638.30;110104;1238;68901;-71
2023/08/06 07:34:02;;;;;;;7.80;5.20;;;;;;;28.88;75.56;99635.23;109995;1238;65583;-71
2023/08/06 07:36:31;;;;;;;4.50;3.80;;;;;;;28.99;75.56;99625.80;110055;1239;61356;-70
2023/08/06 07:39:00;;;;;;;5.70;4.00;;;;;;;29.20;75.58;99626.21;110077;1239;57831;-71
2023/08/06 07:41:29;;;;;;;5.20;4.00;;;;;;;29.41;74.74;99618.11;110105;1238;62774;-71
2023/08/06 07:43:58;;;;;;;6.60;3.70;;;;;;;29.51;73.43;99614.41;110127;1237;63346;-70
2023/08/06 07:46:26;;;;;;;7.80;3.90;;;;;;;29.69;72.08;99613.11;110007;1237;70674;-71
2023/08/06 07:48:55;;;;;;;6.10;4.00;;;;;;;29.74;70.60;99615.02;110102;1239;63452;-72
2023/08/06 07:51:24;;;;;;;5.80;4.10;;;;;;;29.73;70.09;99608.28;110109;1238;58336;-71
2023/08/06 07:53:53;;;;;;;8.70;3.60;;;;;;;29.92;68.46;99603.34;110125;1237;60272;-71
2023/08/06 07:56:21;;;;;;;5.10;3.90;;;;;;;29.83;66.68;99594.50;110096;1237;73980;-70
2023/08/06 07:58:50;;;;;;;5.60;3.30;;;;;;;29.84;66.99;99594.59;110116;1239;60966;-70
2023/08/06 08:01:19;;;;;;;6.90;3.30;;;;;;;29.93;66.45;99588.70;110060;1241;58979;-70
2023/08/06 08:03:47;;;;;;;5.40;3.50;;;;;;;30.09;66.08;99584.61;110101;1238;73860;-70
2023/08/06 08:06:16;;;;;;;5.10;3.90;;;;;;;30.06;65.61;99584.16;110134;1239;57966;-70
2023/08/06 08:08:45;;;;;;;6.70;3.70;;;;;;;30.18;64.91;99581.30;110041;1241;57752;-70
2023/08/06 08:11:15;;;;;;;5.50;3.90;;;;;;;30.22;64.75;99576.89;110034;1237;62744;-70
2023/08/06 08:13:44;;;;;;;4.70;3.80;;;;;;;30.10;65.49;99576.09;110140;1239;60719;-71
2023/08/06 08:16:13;;;;;;;5.10;3.80;;;;;;;30.02;66.68;99581.58;110027;1238;60266;-71
2023/08/06 08:18:42;;;;;;;5.10;3.70;;;;;;;30.07;67.24;99580.05;110044;1241;64056;-71
2023/08/06 08:21:10;;;;;;;7.70;4.10;;;;;;;30.20;67.15;99573.44;110122;1239;61527;-70
2023/08/06 08:23:41;;;;;;;7.10;3.80;;;;;;;30.46;65.00;99574.96;110136;1239;57765;-71
2023/08/06 08:26:10;;;;;;;4.50;3.50;;;;;;;30.65;62.17;99571.26;110151;1238;63591;-71
2023/08/06 08:28:39;;;;;;;4.50;3.50;;;;;;;30.73;61.67;99569.13;110163;1237;62357;-72
2023/08/06 08:31:11;;;;;;;6.70;3.90;;;;;;;30.93;62.03;99572.76;109998;1239;70649;-70
2023/08/06 08:33:40;;;;;;;5.90;3.40;;;;;;;30.93;61.00;99573.72;109672;1237;63999;-70
2023/08/06 08:36:09;;;;;;;7.10;3.90;;;;;;;30.97;60.95;99572.42;110090;1239;57817;-70
2023/08/06 08:38:38;;;;;;;5.10;3.40;;;;;;;30.92;61.63;99567.41;110106;1238;57785;-70
2023/08/06 08:41:09;;;;;;;5.00;3.50;;;;;;;30.98;62.89;99568.75;110015;1238;64267;-70
2023/08/06 08:43:40;;;;;;;5.50;3.70;;;;;;;31.18;61.75;99563.54;110024;1238;61639;-70
2023/08/06 08:46:11;;;;;;;7.00;3.50;;;;;;;30.98;61.01;99554.09;110095;1237;61911;-69
2023/08/06 08:48:40;;;;;;;4.90;3.30;;;;;;;31.06;61.15;99544.85;109974;1238;63986;-70
2023/08/06 08:51:11;;;;;;;6.30;3.80;;;;;;;31.21;60.94;99544.44;110018;1238;58284;-70
2023/08/06 08:53:42;;;;;;;5.10;3.00;;;;;;;31.34;60.50;99548.02;110008;1238;58266;-70
2023/08/06 08:56:13;;;;;;;6.50;3.80;;;;;;;31.22;59.78;99546.80;109988;1238;74262;-69
2023/08/06 08:58:42;;;;;;;5.80;3.30;;;;;;;31.15;59.40;99539.98;109976;1237;62632;-69
2023/08/06 09:01:11;;;;;;;8.50;4.30;;;;;;;31.41;59.46;99533.20;110098;1237;69635;-70
2023/08/06 09:03:41;;;;;;;4.80;3.80;;;;;;;31.43;59.53;99532.65;109917;1237;72276;-70
2023/08/06 09:06:13;;;;;;;4.90;3.80;;;;;;;31.47;61.86;99536.59;110072;1239;60928;-70
2023/08/06 09:08:47;;;;;;;;;;;;;;;31.70;62.63;99534.05;110169;1238;57844;-70
2023/08/06 09:11:17;;;;;;;4.10;3.60;;;;;;;31.76;58.89;99522.09;109934;1238;347309;-71
2023/08/06 09:13:46;;;;;;;4.90;3.60;;;;;;;31.82;58.54;99511.52;110085;1238;72500;-70
2023/08/06 09:16:14;;;;;;;5.50;3.40;;;;;;;32.05;58.71;99513.59;110149;1237;71327;-71
2023/08/06 09:18:44;;;;;;;13.30;3.90;;;;;;;31.92;56.44;99504.02;110157;1239;65417;-71
2023/08/06 09:21:16;;;;;;;6.10;4.00;;;;;;;31.66;56.35;99503.34;110073;1240;57769;-70
2023/08/06 09:23:44;;;;;;;;;;;;;;;31.97;56.23;99502.52;110141;1237;61834;-70
2023/08/06 09:26:13;;;;;;;6.40;3.50;;;;;;;32.09;55.50;99492.02;110106;1238;74258;-70
2023/08/06 09:28:44;;;;;;;7.20;3.50;;;;;;;32.02;55.65;99488.30;110074;1237;62020;-71
2023/08/06 09:31:13;;;;;;;6.50;4.00;;;;;;;32.15;55.91;99481.59;110167;1237;59951;-70
2023/08/06 09:33:44;;;;;;;4.70;3.70;;;;;;;32.18;55.85;99478.54;110123;1237;73825;-71
2023/08/06 09:36:13;;;;;;;4.70;3.40;;;;;;;32.32;55.49;99472.55;110139;1238;61557;-71
2023/08/06 09:38:42;;;;;;;7.00;3.90;;;;;;;32.62;56.79;99470.17;110136;1237;59345;-70
2023/08/06 09:41:27;;;;;;;6.40;4.20;;;;;;;32.74;58.11;99469.82;109925;1239;65498;-70
2023/08/06 09:43:56;;;;;;;6.10;4.40;;;;;;;32.81;57.91;99469.75;110122;1237;61772;-70
2023/08/06 09:46:25;;;;;;;6.30;4.30;;;;;;;32.61;59.11;99459.58;110109;1237;69639;-71
2023/08/06 09:48:55;;;;;;;9.40;4.00;;;;;;;32.51;60.03;99457.36;109926;1239;74139;-70
2023/08/06 09:51:23;;;;;;;7.10;3.90;;;;;;;32.73;59.04;99451.28;109940;1239;61438;-69
2023/08/06 09:53:53;;;;;;;10.90;4.60;;;;;;;32.86;58.75;99447.69;110007;1238;58264;-71
2023/08/06 09:56:22;;;;;;;6.30;3.90;;;;;;;33.20;57.26;99441.55;109952;1239;74325;-70
2023/08/06 09:58:55;;;;;;;7.00;3.60;;;;;;;33.18;56.44;99441.59;109790;1238;63632;-70
2023/08/06 10:01:24;;;;;;;9.60;3.80;;;;;;;33.00;56.29;99434.56;109896;1237;71225;-71
2023/08/06 10:03:54;;;;;;;8.90;3.60;;;;;;;32.87;56.60;99430.71;110059;1237;65236;-71
2023/08/06 10:06:24;;;;;;;5.20;3.80;;;;;;;32.92;56.86;99433.79;110022;1239;58295;-70
2023/08/06 10:08:53;;;;;;;5.00;3.20;;;;;;;33.20;55.54;99429.92;110075;1237;58241;-71
2023/08/06 10:11:27;;;;;;;6.20;3.70;;;;;;;33.18;53.38;99421.94;110060;1239;74446;-71
2023/08/06 10:14:21;;;;;;;6.10;3.80;;;;;;;33.22;54.67;99426.80;109882;1238;61245;-71
2023/08/06 10:16:50;;;;;;;5.70;3.40;;;;;;;33.30;55.46;99425.18;110003;1237;69681;-70
2023/08/06 10:19:20;;;;;;;6.50;3.80;;;;;;;33.06;55.97;99422.95;109878;1237;63690;-70
2023/08/06 10:22:12;;;;;;;4.90;3.50;;;;;;;33.21;55.26;99421.69;110083;1239;61014;-70
2023/08/06 10:25:07;;;;;;;6.80;3.40;;;;;;;33.67;54.53;99416.91;110103;1237;61848;-71
2023/08/06 10:27:52;;;;;;;7.70;4.20;;;;;;;33.74;54.26;99412.43;109900;1238;73194;-70
2023/08/06 10:30:28;;;;;;;6.30;4.00;;;;;;;33.82;54.04;99409.66;109931;1237;71776;-71
2023/08/06 10:33:02;;;;;;;6.50;4.20;;;;;;;34.07;54.27;99401.41;109773;1237;60786;-71
2023/08/06 10:35:43;;;;;;;5.40;3.80;;;;;;;34.17;54.63;99394.95;109965;1237;63470;-70
2023/08/06 10:38:18;;;;;;;3.80;3.10;;;;;;;34.10;53.47;99395.34;109966;1238;57812;-70
2023/08/06 10:40:52;;;;;;;8.90;4.40;;;;;;;33.99;53.31;99390.11;109653;1238;58297;-70
2023/08/06 10:43:34;;;;;;;6.80;3.80;;;;;;;33.79;54.07;99386.27;109975;1237;65346;-70
2023/08/06 10:46:10;;;;;;;5.50;3.70;;;;;;;34.04;53.50;99383.45;109765;1237;72299;-71
2023/08/06 10:48:45;;;;;;;6.50;3.60;;;;;;;34.41;52.37;99383.89;109892;1237;60267;-69
2023/08/06 10:51:14;;;;;;;8.10;3.80;;;;;;;34.71;51.74;99378.48;109837;1237;62771;-72
2023/08/06 10:53:49;;;;;;;5.60;3.60;;;;;;;34.32;53.19;99373.20;109837;1241;57758;-71
2023/08/06 10:56:23;;;;;;;5.80;4.10;;;;;;;34.52;53.10;99370.77;109859;1237;58313;-70
2023/08/06 10:58:58;;;;;;;7.50;3.70;;;;;;;34.62;52.37;99366.34;109979;1237;64172;-70
2023/08/06 11:01:30;;;;;;;8.70;3.90;;;;;;;33.87;52.85;99348.20;109707;1238;72841;-71
2023/08/06 11:04:02;;;;;;;7.30;3.50;;;;;;;33.96;53.70;99350.32;109739;1238;70111;-70
2023/08/06 11:06:31;;;;;;;9.10;3.30;;;;;;;33.95;53.79;99347.09;109915;1238;62818;-71
2023/08/06 11:09:01;;;;;;;8.40;3.90;;;;;;;34.44;53.23;99342.14;109958;1239;57788;-71
2023/08/06 11:11:30;;;;;;;6.00;3.60;;;;;;;35.17;51.52;99343.23;109891;1237;58179;-70
2023/08/06 11:13:59;;;;;;;5.20;3.40;;;;;;;35.79;49.10;99338.66;109998;1237;64574;-70
2023/08/06 11:16:27;;;;;;;9.00;3.60;;;;;;;35.78;48.07;99337.68;109863;1237;72764;-70
2023/08/06 11:18:59;;;;;;;8.20;4.00;;;;;;;36.18;47.22;99332.38;109976;1237;59499;-71
2023/08/06 11:21:29;;;;;;;4.60;3.10;;;;;;;36.04;46.27;99323.55;109920;1239;73124;-71
2023/08/06 11:23:58;;;;;;;4.80;3.60;;;;;;;35.71;46.16;99322.50;109842;1241;58218;-71
2023/08/06 11:26:28;;;;;;;5.10;2.90;;;;;;;35.87;46.15;99316.54;109959;1238;61251;-71
2023/08/06 11:28:57;;;;;;;4.70;3.30;;;;;;;35.91;44.83;99307.27;109963;1238;65657;-71
2023/08/06 11:31:26;;;;;;;8.80;3.60;;;;;;;35.91;43.82;99296.63;109860;1237;73320;-71